Saint-Noel, Canada
Current Conditions -  °F | °C
As of 9:00 AM on Monday 20 Oct 2014 (Local Time) from CYYY Reporting Station
Broken Clouds Broken Clouds  
Wind Chill: 27°   Ceiling: 9000
Heat Index: 37°   Visibility: 30mi
Dew Point: 28°   Wind: 21mph
Humidity: 70%   Direction: 260°W
Pressure: 29.72"   Gusts: 31mph
Location:  48.58°N, 67.83°W
Report Text: CYYY 201300Z 26018G27KT 30SM FEW030 BKN090 03/M02 A2972 RMK SC2AC5 SLP066
Loading
Personal Weather Stations






























Interactive Weather Map
Tropical Storm Tracking
New forecast layout! Learn more

10-Day Weather Forecast

Advertisements
Track Severe Weather on mobile